Time;durP1;ratioP1;P1;durP2;ratioP2;P2;SDS_P1;SDS_P2;PMS_P1;PMS_P2;Temp;Humidity;BMP_temperature;BMP_pressure;BME280_temperature;BME280_humidity;BME280_pressure;Samples;Min_cycle;Max_cycle;Signal;HPM_P1;HPM_P2
2021/05/19 00:01:41;;;;;;;17.12;10.95;;;;;;;8.22;79.49;100175.76;1732421;82;21088;-69
2021/05/19 00:04:08;;;;;;;19.85;11.48;;;;;;;8.21;79.54;100175.41;1732213;82;21028;-69
2021/05/19 00:06:34;;;;;;;17.27;10.25;;;;;;;8.19;79.54;100175.25;1732249;82;21064;-69
2021/05/19 00:09:00;;;;;;;19.45;11.48;;;;;;;8.18;79.57;100178.89;1732011;82;21689;-69
2021/05/19 00:11:26;;;;;;;25.10;13.90;;;;;;;8.18;79.62;100169.09;1731527;82;20960;-69
2021/05/19 00:13:52;;;;;;;24.50;13.85;;;;;;;8.16;79.65;100176.41;1732575;82;21103;-69
2021/05/19 00:16:18;;;;;;;21.15;12.95;;;;;;;8.16;79.65;100175.57;1732334;82;21075;-69
2021/05/19 00:18:44;;;;;;;20.52;12.23;;;;;;;8.14;79.69;100170.41;1732287;82;21602;-69
2021/05/19 00:21:10;;;;;;;23.52;12.45;;;;;;;8.14;79.71;100174.39;1732431;82;20924;-69
2021/05/19 00:23:37;;;;;;;16.15;11.10;;;;;;;8.10;79.72;100171.71;1731895;81;21618;-69
2021/05/19 00:26:04;;;;;;;17.17;10.48;;;;;;;8.07;79.75;100172.52;1732341;82;21089;-69
2021/05/19 00:28:31;;;;;;;19.25;11.30;;;;;;;8.09;79.75;100170.07;1732370;82;21063;-68
2021/05/19 00:31:00;;;;;;;18.82;11.68;;;;;;;8.10;79.76;100168.22;1732551;82;21000;-69
2021/05/19 00:33:25;;;;;;;19.42;11.10;;;;;;;8.08;79.78;100162.25;1731592;82;21048;-68
2021/05/19 00:35:51;;;;;;;18.67;11.55;;;;;;;8.08;79.80;100168.40;1732557;82;20900;-69
2021/05/19 00:38:18;;;;;;;20.17;10.50;;;;;;;8.07;79.82;100166.72;1732371;82;21785;-69
2021/05/19 00:40:45;;;;;;;19.12;11.45;;;;;;;8.02;79.81;100169.84;1732080;82;21551;-69
2021/05/19 00:43:11;;;;;;;24.77;12.18;;;;;;;7.99;79.84;100168.01;1732294;82;21043;-69
2021/05/19 00:45:38;;;;;;;21.73;12.37;;;;;;;8.01;79.89;100170.03;1732448;82;20876;-69
2021/05/19 00:48:06;;;;;;;19.80;11.55;;;;;;;8.04;79.88;100169.70;1732356;82;21059;-69
2021/05/19 00:50:32;;;;;;;17.50;10.45;;;;;;;8.07;79.90;100165.39;1732038;82;21603;-69
2021/05/19 00:52:58;;;;;;;21.70;11.55;;;;;;;8.08;79.93;100157.77;1732261;82;20861;-69
2021/05/19 00:55:24;;;;;;;22.87;12.47;;;;;;;8.11;79.92;100153.95;1732367;81;21489;-69
2021/05/19 00:57:53;;;;;;;21.95;12.50;;;;;;;8.12;79.95;100150.32;1732195;82;21127;-69
2021/05/19 01:00:20;;;;;;;15.68;10.43;;;;;;;8.14;79.96;100159.78;1732436;82;21040;-69
2021/05/19 01:02:46;;;;;;;18.27;10.90;;;;;;;8.14;79.96;100159.78;1715678;79;21631;-69
2021/05/19 01:05:20;;;;;;;15.65;9.80;;;;;;;8.15;80.01;100164.11;1714538;82;21035;-69
2021/05/19 01:10:28;;;;;;;18.15;10.88;;;;;;;8.12;80.02;100163.11;1714857;82;21886;-69
2021/05/19 01:12:54;;;;;;;19.30;12.58;;;;;;;8.10;80.02;100169.05;1710979;83;21085;-69
2021/05/19 01:15:20;;;;;;;15.35;10.80;;;;;;;8.08;80.07;100173.70;1714797;83;21658;-69
2021/05/19 01:17:47;;;;;;;15.78;10.30;;;;;;;8.09;80.07;100175.38;1714369;83;21092;-69
2021/05/19 01:20:14;;;;;;;14.13;9.90;;;;;;;8.05;80.09;100176.69;1714865;83;21580;-69
2021/05/19 01:22:41;;;;;;;16.42;10.25;;;;;;;7.99;80.15;100169.33;1714482;83;21072;-69
2021/05/19 01:25:09;;;;;;;13.85;9.23;;;;;;;7.99;80.18;100173.31;1714766;83;21547;-69
2021/05/19 01:27:36;;;;;;;15.43;9.55;;;;;;;8.06;80.18;100169.55;1714768;83;21686;-69
2021/05/19 01:30:04;;;;;;;16.70;9.55;;;;;;;8.04;80.19;100175.85;1714467;83;21068;-69
2021/05/19 01:32:30;;;;;;;16.73;10.63;;;;;;;8.03;80.21;100185.29;1714743;83;21032;-69
2021/05/19 01:34:56;;;;;;;14.55;9.50;;;;;;;8.03;80.22;100181.30;1714516;83;21564;-69
2021/05/19 01:37:22;;;;;;;15.50;10.03;;;;;;;8.03;80.28;100179.48;1714853;83;20988;-69
2021/05/19 01:39:48;;;;;;;19.98;10.30;;;;;;;8.03;80.29;100176.00;1714409;83;21081;-69
2021/05/19 01:42:14;;;;;;;15.28;9.48;;;;;;;8.04;80.31;100183.81;1714627;83;21076;-69
2021/05/19 01:44:40;;;;;;;12.85;8.50;;;;;;;8.04;80.33;100183.81;1714469;83;21037;-69
2021/05/19 01:47:07;;;;;;;13.93;8.70;;;;;;;8.03;80.39;100183.96;1714603;83;20976;-69
2021/05/19 01:49:42;;;;;;;10.85;8.78;;;;;;;8.02;80.43;100186.30;1714708;83;21049;-69
2021/05/19 01:52:09;;;;;;;13.65;8.80;;;;;;;8.02;80.46;100184.98;1714581;83;21149;-69
2021/05/19 01:54:40;;;;;;;12.85;9.25;;;;;;;8.07;80.53;100177.34;1714642;83;21048;-69
2021/05/19 01:57:08;;;;;;;13.10;8.50;;;;;;;8.12;80.56;100184.36;1697388;84;21051;-69
2021/05/19 01:59:33;;;;;;;13.98;8.98;;;;;;;8.12;80.59;100183.03;1695800;84;21058;-69
2021/05/19 02:01:59;;;;;;;12.68;8.95;;;;;;;8.14;80.63;100178.86;1714637;83;20989;-69
2021/05/19 02:04:25;;;;;;;13.35;9.40;;;;;;;8.17;80.63;100183.86;1712114;83;21800;-69
2021/05/19 02:06:57;;;;;;;17.73;9.63;;;;;;;8.16;80.68;100183.05;1696295;84;20971;-69
2021/05/19 02:09:25;;;;;;;13.05;8.18;;;;;;;8.17;80.70;100182.52;1695973;84;21657;-69
2021/05/19 02:11:51;;;;;;;13.65;8.13;;;;;;;8.18;80.71;100186.36;1696291;84;21052;-69
2021/05/19 02:14:17;;;;;;;14.13;8.70;;;;;;;8.18;80.75;100184.20;1696176;84;21015;-69
2021/05/19 02:16:43;;;;;;;12.53;8.90;;;;;;;8.18;80.79;100189.52;1696289;84;21272;-69
2021/05/19 02:19:11;;;;;;;13.15;8.60;;;;;;;8.20;80.81;100190.20;1696000;83;20975;-69
2021/05/19 02:21:48;;;;;;;16.93;9.70;;;;;;;8.22;80.83;100193.03;1696276;84;21703;-69
2021/05/19 02:24:15;;;;;;;16.00;9.63;;;;;;;8.26;80.85;100198.36;1696524;84;21103;-69
2021/05/19 02:26:41;;;;;;;13.85;9.38;;;;;;;8.26;80.88;100195.70;1696583;84;21015;-69
2021/05/19 02:29:07;;;;;;;14.35;8.13;;;;;;;8.28;80.88;100184.90;1696486;84;21055;-69
2021/05/19 02:31:33;;;;;;;12.50;8.55;;;;;;;8.33;80.93;100186.63;1696511;84;21555;-69
2021/05/19 02:33:59;;;;;;;13.48;8.65;;;;;;;8.36;80.93;100187.62;1696430;84;21083;-69
2021/05/19 02:36:26;;;;;;;12.85;8.18;;;;;;;8.34;80.97;100193.09;1696306;84;21624;-69
2021/05/19 02:38:53;;;;;;;16.62;9.18;;;;;;;8.34;80.98;100195.74;1696315;84;21067;-69
2021/05/19 02:41:19;;;;;;;13.88;8.65;;;;;;;8.37;80.99;100194.61;1696380;84;21043;-69
2021/05/19 02:43:45;;;;;;;14.25;8.53;;;;;;;8.39;81.03;100197.44;1696434;83;21131;-69
2021/05/19 02:46:14;;;;;;;10.95;8.75;;;;;;;8.45;81.06;100199.44;1696570;84;20943;-69
2021/05/19 02:48:40;;;;;;;12.20;8.88;;;;;;;8.50;81.06;100197.14;1696322;84;21062;-69
2021/05/19 02:51:08;;;;;;;11.88;8.80;;;;;;;8.56;81.07;100200.97;1696659;84;21115;-69
2021/05/19 02:53:33;;;;;;;16.12;9.48;;;;;;;8.58;81.07;100199.49;1696404;84;21575;-69
2021/05/19 02:56:00;;;;;;;19.40;9.10;;;;;;;8.58;81.11;100199.00;1696339;84;20901;-69
2021/05/19 02:58:26;;;;;;;15.35;8.35;;;;;;;8.64;81.13;100200.16;1696422;84;21071;-69
2021/05/19 03:00:52;;;;;;;13.98;9.05;;;;;;;8.70;81.12;100205.66;1696304;84;21119;-69
2021/05/19 03:03:18;;;;;;;11.83;9.18;;;;;;;8.74;81.14;100205.67;1696381;83;20964;-69
2021/05/19 03:05:44;;;;;;;15.88;10.13;;;;;;;8.75;81.13;100206.02;1693854;83;21305;-69
2021/05/19 03:08:10;;;;;;;13.10;9.20;;;;;;;8.77;81.17;100208.50;1708788;82;21043;-69
2021/05/19 03:10:36;;;;;;;15.43;9.50;;;;;;;8.77;81.16;100200.02;1708476;83;21023;-69
2021/05/19 03:13:03;;;;;;;13.95;9.50;;;;;;;8.78;81.16;100206.18;1708960;84;20960;-69
2021/05/19 03:15:29;;;;;;;16.32;10.20;;;;;;;8.80;81.18;100204.17;1708817;83;21016;-69
2021/05/19 03:17:55;;;;;;;20.68;12.47;;;;;;;8.83;81.21;100204.68;1708873;83;21126;-69
2021/05/19 03:20:21;;;;;;;18.67;10.50;;;;;;;8.86;81.19;100206.20;1708604;84;21591;-69
2021/05/19 03:22:47;;;;;;;13.20;9.85;;;;;;;8.88;81.18;100209.03;1708557;84;21020;-69
2021/05/19 03:25:13;;;;;;;17.65;11.90;;;;;;;8.89;81.17;100212.52;1708850;84;20953;-69
2021/05/19 03:27:40;;;;;;;27.62;15.48;;;;;;;8.87;81.18;100217.98;1708794;84;21651;-69
2021/05/19 03:30:10;;;;;;;29.18;17.07;;;;;;;8.85;81.18;100214.67;1709102;84;21063;-69
2021/05/19 03:32:36;;;;;;;25.32;14.75;;;;;;;8.86;81.18;100220.83;1708425;84;21591;-69
2021/05/19 03:35:04;;;;;;;17.07;10.98;;;;;;;8.85;81.18;100221.33;1708728;84;20897;-69
2021/05/19 03:37:30;;;;;;;19.45;11.63;;;;;;;8.85;81.18;100225.31;1708735;83;21087;-69
2021/05/19 03:39:56;;;;;;;18.17;11.75;;;;;;;8.86;81.17;100227.48;1708702;83;21007;-69
2021/05/19 03:42:22;;;;;;;16.17;10.10;;;;;;;8.87;81.17;100223.80;1708809;83;21111;-69
2021/05/19 03:44:48;;;;;;;16.17;10.38;;;;;;;8.90;81.19;100228.82;1708753;83;20964;-69
2021/05/19 03:47:14;;;;;;;21.80;11.25;;;;;;;8.92;81.19;100226.81;1708831;83;20921;-69
2021/05/19 03:49:40;;;;;;;24.47;13.85;;;;;;;8.94;81.21;100231.46;1708398;84;20905;-69
2021/05/19 03:52:07;;;;;;;22.32;13.98;;;;;;;8.96;81.23;100233.48;1708729;84;21116;-69
2021/05/19 03:54:34;;;;;;;27.82;13.50;;;;;;;8.97;81.21;100232.49;1708636;83;21160;-69
2021/05/19 03:57:05;;;;;;;26.30;13.65;;;;;;;8.98;81.21;100230.14;1708720;83;21598;-69
2021/05/19 03:59:32;;;;;;;27.55;13.65;;;;;;;9.01;81.23;100232.47;1708865;84;20988;-69
2021/05/19 04:01:58;;;;;;;21.17;12.98;;;;;;;9.04;81.25;100225.52;1708691;83;21036;-70
2021/05/19 04:04:24;;;;;;;20.88;12.70;;;;;;;9.10;81.24;100230.17;1710156;83;21057;-69
2021/05/19 04:06:50;;;;;;;20.35;12.28;;;;;;;9.15;81.23;100235.81;1712823;82;21160;-69
2021/05/19 04:09:16;;;;;;;14.83;10.65;;;;;;;9.14;80.99;100214.22;1713009;83;21571;-69
2021/05/19 04:11:42;;;;;;;20.57;11.00;;;;;;;9.14;80.99;100214.22;1713171;83;20910;-69
2021/05/19 04:14:08;;;;;;;14.23;10.00;;;;;;;9.28;81.21;100233.52;1713195;83;20941;-69
2021/05/19 04:16:34;;;;;;;17.77;10.20;;;;;;;9.30;81.23;100239.98;1713126;83;21060;-69
2021/05/19 04:19:00;;;;;;;14.83;10.15;;;;;;;9.35;81.25;100247.83;1712996;83;20997;-69
2021/05/19 04:21:26;;;;;;;12.47;10.32;;;;;;;9.37;81.23;100242.33;1713141;83;21108;-69
2021/05/19 04:23:52;;;;;;;14.45;10.03;;;;;;;9.40;81.26;100247.31;1712953;83;21044;-69
2021/05/19 04:26:18;;;;;;;15.35;11.22;;;;;;;9.42;81.25;100245.33;1713219;83;21113;-69
2021/05/19 04:28:44;;;;;;;16.20;11.08;;;;;;;9.49;81.26;100247.66;1713075;83;20918;-69
2021/05/19 04:31:11;;;;;;;14.58;9.88;;;;;;;9.52;81.24;100248.66;1713209;82;21116;-69
2021/05/19 04:33:37;;;;;;;19.67;11.08;;;;;;;9.56;81.22;100254.48;1712904;83;21573;-69
2021/05/19 04:36:03;;;;;;;24.52;11.45;;;;;;;9.59;81.23;100248.81;1712875;83;20969;-69
2021/05/19 04:38:29;;;;;;;19.48;12.15;;;;;;;9.64;81.19;100251.82;1712987;83;21093;-69
2021/05/19 04:40:55;;;;;;;16.67;10.72;;;;;;;9.73;81.19;100260.13;1713031;83;20946;-69
2021/05/19 04:43:22;;;;;;;18.42;11.95;;;;;;;9.75;81.18;100252.78;1712360;83;21084;-69
2021/05/19 04:45:48;;;;;;;19.32;11.38;;;;;;;9.80;81.17;100250.46;1712881;83;21041;-69
2021/05/19 04:48:14;;;;;;;16.07;10.85;;;;;;;9.85;81.15;100250.27;1710387;83;20858;-69
2021/05/19 04:50:40;;;;;;;16.85;11.48;;;;;;;9.93;81.16;100254.77;1712164;83;20961;-69
2021/05/19 04:53:06;;;;;;;16.32;10.58;;;;;;;9.93;81.10;100258.76;1712080;83;21065;-69
2021/05/19 04:55:32;;;;;;;14.30;10.90;;;;;;;9.90;81.10;100250.61;1703654;83;21572;-69
2021/05/19 04:57:59;;;;;;;14.03;10.32;;;;;;;9.91;81.09;100258.11;1690073;84;21095;-69
2021/05/19 05:00:25;;;;;;;26.93;14.45;;;;;;;9.92;81.07;100261.11;1708047;83;21061;-69
2021/05/19 05:02:51;;;;;;;26.95;14.05;;;;;;;9.93;81.06;100260.09;1690252;83;20947;-69
2021/05/19 05:05:17;;;;;;;25.10;14.90;;;;;;;9.94;81.07;100259.94;1694488;84;21601;-69
2021/05/19 05:07:43;;;;;;;30.32;16.90;;;;;;;9.94;81.02;100266.59;1695364;84;21685;-69
2021/05/19 05:10:10;;;;;;;28.17;16.97;;;;;;;9.97;81.00;100261.42;1705371;83;20973;-69
2021/05/19 05:12:36;;;;;;;22.48;14.53;;;;;;;10.04;80.98;100267.73;1690469;84;21582;-69
2021/05/19 05:15:04;;;;;;;21.35;14.07;;;;;;;10.11;80.98;100259.89;1691651;84;21102;-69
2021/05/19 05:17:30;;;;;;;29.02;16.48;;;;;;;10.21;80.96;100253.39;1695978;84;21020;-69
2021/05/19 05:19:56;;;;;;;21.90;12.15;;;;;;;10.28;80.91;100257.04;1696189;84;20988;-69
2021/05/19 05:22:22;;;;;;;16.05;10.80;;;;;;;10.36;80.91;100265.02;1696029;84;20912;-69
2021/05/19 05:24:48;;;;;;;18.23;10.60;;;;;;;10.41;80.88;100267.18;1693674;84;20888;-70
2021/05/19 05:27:14;;;;;;;18.00;10.65;;;;;;;10.41;80.85;100265.31;1690619;84;21100;-70
2021/05/19 05:29:40;;;;;;;20.65;12.60;;;;;;;10.41;80.82;100266.65;1690778;84;20931;-69
2021/05/19 05:32:07;;;;;;;21.50;13.15;;;;;;;10.45;80.81;100266.64;1690576;84;21051;-69
2021/05/19 05:34:33;;;;;;;20.35;12.80;;;;;;;10.49;80.81;100265.30;1690319;84;21058;-69
2021/05/19 05:37:00;;;;;;;14.80;11.60;;;;;;;10.56;80.75;100271.27;1708841;83;21033;-69
2021/05/19 05:39:26;;;;;;;14.85;11.30;;;;;;;10.57;80.71;100266.27;1707148;83;21143;-69
2021/05/19 05:41:52;;;;;;;16.80;10.23;;;;;;;10.61;80.68;100270.25;1710566;83;21084;-69
2021/05/19 05:44:18;;;;;;;15.13;10.45;;;;;;;10.69;80.65;100270.23;1710142;83;21563;-69
2021/05/19 05:46:44;;;;;;;14.25;9.83;;;;;;;10.80;80.64;100275.19;1705165;83;20993;-69
2021/05/19 05:49:10;;;;;;;19.10;12.90;;;;;;;10.92;80.57;100271.94;1705495;82;20989;-69
2021/05/19 05:51:36;;;;;;;25.15;11.95;;;;;;;10.97;80.53;100272.25;1710627;83;20906;-69
2021/05/19 05:54:04;;;;;;;31.50;13.43;;;;;;;11.00;80.48;100281.73;1702062;83;21025;-70
2021/05/19 05:56:30;;;;;;;19.45;10.82;;;;;;;11.05;80.41;100278.02;1700525;83;21616;-70
2021/05/19 05:58:56;;;;;;;16.02;9.45;;;;;;;11.14;80.35;100275.65;1708558;83;20893;-70
2021/05/19 06:01:22;;;;;;;11.80;8.85;;;;;;;11.20;80.29;100280.27;1689849;84;21090;-70
2021/05/19 06:03:48;;;;;;;14.33;10.05;;;;;;;11.24;80.29;100280.25;1710210;83;20863;-70
2021/05/19 06:06:14;;;;;;;26.90;15.58;;;;;;;11.31;80.25;100291.88;1690149;83;20957;-69
2021/05/19 06:08:40;;;;;;;15.30;10.18;;;;;;;11.37;80.23;100287.16;1682624;84;21132;-69
2021/05/19 06:11:07;;;;;;;17.50;10.00;;;;;;;11.45;80.17;100294.28;1685482;85;20972;-69
2021/05/19 06:13:34;;;;;;;10.85;8.68;;;;;;;11.58;80.11;100287.84;1685086;85;21085;-70
2021/05/19 06:16:00;;;;;;;14.58;9.18;;;;;;;11.67;80.03;100289.95;1684630;85;21037;-69
2021/05/19 06:18:26;;;;;;;19.37;12.18;;;;;;;11.74;79.95;100289.59;1677377;84;21674;-69
2021/05/19 06:20:53;;;;;;;23.40;15.78;;;;;;;11.87;79.86;100296.48;1682149;85;21045;-69
2021/05/19 06:23:18;;;;;;;19.77;12.15;;;;;;;11.94;79.75;100293.41;1682431;85;21587;-69
2021/05/19 06:25:45;;;;;;;18.55;12.50;;;;;;;12.00;79.71;100302.03;1682544;85;21589;-69
2021/05/19 06:28:11;;;;;;;19.55;10.70;;;;;;;12.00;79.71;100302.03;1663333;85;21015;-69
2021/05/19 06:30:37;;;;;;;15.13;11.22;;;;;;;12.09;79.55;100306.80;1665223;85;20997;-69
2021/05/19 06:33:04;;;;;;;23.12;12.37;;;;;;;12.04;79.44;100303.33;1674882;85;21081;-69
2021/05/19 06:35:30;;;;;;;17.75;11.03;;;;;;;12.06;79.36;100301.33;1674864;85;21025;-69
2021/05/19 06:37:56;;;;;;;19.87;11.50;;;;;;;12.09;79.24;100307.64;1660868;86;21687;-69
2021/05/19 06:40:22;;;;;;;22.75;11.95;;;;;;;12.07;79.13;100300.29;1661064;85;21065;-69
2021/05/19 06:42:49;;;;;;;14.25;10.95;;;;;;;12.11;79.08;100291.40;1660781;85;21625;-69
2021/05/19 06:45:16;;;;;;;28.10;10.72;;;;;;;12.21;78.99;100299.48;1661113;86;21151;-69
2021/05/19 06:47:42;;;;;;;13.25;9.28;;;;;;;12.23;78.87;100301.98;1660621;85;21096;-69
2021/05/19 06:50:09;;;;;;;14.93;9.08;;;;;;;12.23;78.75;100309.50;1661149;86;20954;-69
2021/05/19 06:52:35;;;;;;;12.45;8.53;;;;;;;12.23;78.68;100310.84;1660966;86;21788;-69
2021/05/19 06:55:02;;;;;;;18.67;10.10;;;;;;;12.23;78.60;100313.52;1661564;86;20922;-69
2021/05/19 06:57:28;;;;;;;15.15;10.80;;;;;;;12.21;78.57;100310.17;1661627;86;21605;-69
2021/05/19 06:59:54;;;;;;;12.55;9.53;;;;;;;12.25;78.50;100310.64;1661224;86;21053;-69
2021/05/19 07:02:20;;;;;;;14.63;9.83;;;;;;;12.20;78.44;100308.54;1661557;86;21561;-69
2021/05/19 07:04:46;;;;;;;17.37;10.48;;;;;;;12.22;78.42;100310.51;1662671;85;21081;-69
2021/05/19 07:07:13;;;;;;;13.70;10.23;;;;;;;12.25;78.36;100319.50;1661039;86;21623;-69
2021/05/19 07:09:39;;;;;;;15.30;10.78;;;;;;;12.31;78.33;100320.62;1671488;85;21181;-69
2021/05/19 07:12:05;;;;;;;11.73;9.20;;;;;;;12.36;78.30;100324.41;1662620;85;21524;-69
2021/05/19 07:14:35;;;;;;;12.05;9.13;;;;;;;12.41;78.25;100322.02;1673775;85;21069;-69
2021/05/19 07:16:59;;;;;;;11.03;8.70;;;;;;;12.43;78.19;100320.48;1673879;85;21056;-69
2021/05/19 07:19:25;;;;;;;12.93;9.93;;;;;;;12.51;78.16;100315.89;1674164;85;20993;-69
2021/05/19 07:21:51;;;;;;;11.85;9.48;;;;;;;12.62;78.13;100317.77;1673834;85;21298;-69
2021/05/19 07:24:17;;;;;;;12.28;9.13;;;;;;;12.70;78.08;100320.36;1674191;85;20992;-69
2021/05/19 07:26:46;;;;;;;14.58;9.88;;;;;;;12.68;78.04;100321.87;1678921;84;21011;-69
2021/05/19 07:29:14;;;;;;;17.00;10.60;;;;;;;12.70;77.98;100326.52;1700497;83;21067;-69
2021/05/19 07:31:41;;;;;;;16.80;9.90;;;;;;;12.78;77.93;100320.24;1675705;84;21084;-69
2021/05/19 07:34:07;;;;;;;15.83;10.85;;;;;;;12.90;77.86;100318.77;1673265;85;21703;-69
2021/05/19 07:36:33;;;;;;;16.50;11.48;;;;;;;13.03;77.82;100317.58;1671346;85;21083;-69
2021/05/19 07:38:59;;;;;;;12.75;10.53;;;;;;;13.16;77.75;100318.30;1671555;85;21504;-69
2021/05/19 07:41:28;;;;;;;14.90;10.08;;;;;;;13.32;77.68;100316.21;1674006;85;21588;-69
2021/05/19 07:43:54;;;;;;;13.18;9.85;;;;;;;13.37;77.61;100314.31;1672856;85;21552;-69
2021/05/19 07:46:20;;;;;;;14.65;10.72;;;;;;;13.39;77.52;100313.09;1671309;85;21161;-69
2021/05/19 07:48:46;;;;;;;13.72;10.40;;;;;;;13.50;77.40;100315.27;1671729;85;21080;-69
2021/05/19 07:51:12;;;;;;;15.75;10.70;;;;;;;13.65;77.30;100315.72;1671217;85;20873;-69
2021/05/19 07:53:38;;;;;;;14.87;10.40;;;;;;;13.77;77.16;100316.85;1671464;85;21673;-69
2021/05/19 07:56:29;;;;;;;14.05;9.68;;;;;;;13.95;77.10;100311.86;1671444;85;21019;-69
2021/05/19 07:59:01;;;;;;;11.55;8.30;;;;;;;14.17;77.00;100316.67;1669600;85;21127;-69
2021/05/19 08:03:59;;;;;;;11.28;7.60;;;;;;;14.35;76.72;100317.05;1671368;85;21104;-70
2021/05/19 08:06:25;;;;;;;13.05;8.68;;;;;;;14.34;76.64;100315.38;1671182;85;20925;-70
2021/05/19 08:08:51;;;;;;;12.05;7.25;;;;;;;14.42;76.47;100320.09;1670242;85;21001;-70
2021/05/19 08:11:17;;;;;;;12.00;7.35;;;;;;;14.48;76.27;100315.28;1670606;85;21169;-70
2021/05/19 08:13:47;;;;;;;10.98;6.95;;;;;;;14.66;75.94;100321.98;1670588;85;21014;-70
2021/05/19 08:16:12;;;;;;;12.68;7.75;;;;;;;14.95;75.60;100298.36;1670190;85;21113;-69
2021/05/19 08:18:38;;;;;;;10.28;7.83;;;;;;;14.95;75.60;100298.36;1670607;85;21111;-70
2021/05/19 08:21:04;;;;;;;11.10;7.72;;;;;;;15.29;75.25;100312.23;1670880;85;20957;-70
2021/05/19 08:23:30;;;;;;;10.45;6.95;;;;;;;15.52;74.95;100308.39;1669754;85;22062;-70
2021/05/19 08:25:56;;;;;;;9.18;6.67;;;;;;;15.80;74.62;100311.71;1669462;84;21104;-70
2021/05/19 08:28:22;;;;;;;9.70;6.87;;;;;;;15.95;74.17;100305.63;1665316;85;21062;-70
2021/05/19 08:30:49;;;;;;;10.05;7.35;;;;;;;15.99;73.67;100305.53;1671107;85;21100;-70
2021/05/19 08:33:15;;;;;;;17.50;12.07;;;;;;;15.99;73.23;100305.53;1674154;85;21074;-70
2021/05/19 08:35:41;;;;;;;9.63;7.05;;;;;;;16.13;72.98;100307.69;1674066;84;21649;-70
2021/05/19 08:38:07;;;;;;;10.03;7.90;;;;;;;16.46;72.59;100309.32;1679936;84;20969;-70
2021/05/19 08:40:33;;;;;;;12.65;7.50;;;;;;;16.74;71.99;100301.51;1674347;84;21605;-70
2021/05/19 08:42:59;;;;;;;10.65;6.83;;;;;;;16.89;71.52;100307.44;1663361;86;20916;-70
2021/05/19 08:45:25;;;;;;;13.18;7.15;;;;;;;16.96;70.97;100297.46;1662662;85;20961;-70
2021/05/19 08:48:02;;;;;;;7.83;6.22;;;;;;;17.04;70.60;100297.23;1662692;85;21284;-70
2021/05/19 08:50:29;;;;;;;7.83;5.58;;;;;;;17.23;70.34;100292.28;1691367;84;21135;-70
2021/05/19 08:52:59;;;;;;;7.15;6.45;;;;;;;17.47;69.73;100292.02;1694107;84;21524;-70
2021/05/19 08:55:25;;;;;;;7.97;6.30;;;;;;;17.61;69.19;100288.75;1690921;84;21104;-70
2021/05/19 08:57:51;;;;;;;8.98;6.83;;;;;;;17.77;68.78;100286.85;1694150;83;21100;-70
2021/05/19 09:00:18;;;;;;;8.70;6.37;;;;;;;17.68;68.39;100282.78;1674854;84;21242;-70
2021/05/19 09:03:08;;;;;;;9.68;6.65;;;;;;;17.63;67.96;100280.73;1688528;84;21071;-70
2021/05/19 09:05:35;;;;;;;9.25;5.95;;;;;;;17.28;67.36;100278.13;1692807;84;21614;-71
2021/05/19 09:08:12;;;;;;;6.92;6.17;;;;;;;17.01;67.12;100281.50;1685039;84;21100;-70
2021/05/19 09:10:40;;;;;;;6.55;5.12;;;;;;;17.01;66.83;100281.50;1676531;84;21054;-70
2021/05/19 09:13:07;;;;;;;9.25;6.42;;;;;;;16.83;66.59;100280.02;1692521;84;21772;-69
2021/05/19 09:15:48;;;;;;;7.92;5.90;;;;;;;17.04;66.31;100275.67;1691878;83;21120;-69
2021/05/19 09:18:15;;;;;;;7.75;5.80;;;;;;;17.48;66.02;100267.55;1678941;84;21092;-70
2021/05/19 09:20:50;;;;;;;8.60;6.10;;;;;;;17.88;65.56;100272.14;1686018;84;21650;-70
2021/05/19 09:23:17;;;;;;;8.10;5.67;;;;;;;18.15;65.12;100278.66;1692341;83;21052;-70
2021/05/19 09:25:43;;;;;;;6.85;5.72;;;;;;;18.09;64.39;100280.87;1694122;82;21197;-70
2021/05/19 09:28:09;;;;;;;9.18;6.33;;;;;;;17.79;63.88;100279.38;1694870;83;21048;-69
2021/05/19 09:30:48;;;;;;;10.78;6.60;;;;;;;17.57;63.57;100278.92;1697337;82;21033;-69
2021/05/19 09:33:24;;;;;;;8.83;5.53;;;;;;;17.28;63.25;100280.31;1691906;83;21104;-70
2021/05/19 09:36:15;;;;;;;27.93;4.03;;;;;;;16.79;62.79;100300.33;1691269;83;21029;-69
2021/05/19 09:38:46;;;;;;;11.00;3.83;;;;;;;15.96;62.20;100312.67;1694703;83;21095;-69
2021/05/19 09:41:21;;;;;;;10.15;3.40;;;;;;;14.61;61.98;100318.54;1704180;83;21124;-69
2021/05/19 09:43:52;;;;;;;7.83;2.70;;;;;;;13.51;62.42;100328.97;1703215;83;32633;-69
2021/05/19 09:49:23;;;;;;;2.55;1.85;;;;;;;12.60;63.42;100335.84;1690956;83;21549;-69
2021/05/19 09:51:53;;;;;;;;;;;;;;;12.44;63.72;100324.33;1697513;83;21153;-69
2021/05/19 09:54:45;;;;;;;6.55;2.70;;;;;;;12.32;64.02;100320.42;1698644;83;20283;-69
2021/05/19 09:57:13;;;;;;;8.03;5.10;;;;;;;12.25;64.31;100311.48;1693786;82;21074;-69
2021/05/19 09:59:43;;;;;;;9.48;6.28;;;;;;;12.18;64.67;100314.55;1686798;84;21310;-69
2021/05/19 10:02:11;;;;;;;14.13;7.90;;;;;;;12.11;64.95;100311.45;1686897;85;21589;-69
2021/05/19 10:04:47;;;;;;;55.03;28.25;;;;;;;12.11;65.28;100308.78;1686249;85;21872;-69
2021/05/19 10:07:15;;;;;;;48.42;24.32;;;;;;;12.16;65.54;100311.75;1683997;84;21066;-69
2021/05/19 10:09:37;;;;;;;24.98;14.20;;;;;;;12.22;65.82;100305.16;1690771;83;21093;-69
2021/05/19 10:12:04;;;;;;;29.95;17.87;;;;;;;12.37;66.06;100302.00;1711282;83;20985;-69
2021/05/19 10:14:30;;;;;;;31.07;17.55;;;;;;;12.52;66.24;100308.16;1712881;82;21552;-69
2021/05/19 10:17:10;;;;;;;27.82;18.05;;;;;;;12.71;66.47;100299.26;1696091;84;21100;-69
2021/05/19 10:19:40;;;;;;;9.50;6.80;;;;;;;12.90;66.71;100301.37;1696270;84;21096;-69
2021/05/19 10:22:09;;;;;;;5.97;4.30;;;;;;;13.16;66.88;100293.66;1696156;84;21052;-69
2021/05/19 10:24:49;;;;;;;4.97;4.17;;;;;;;13.44;66.97;100294.58;1695768;84;21048;-69
2021/05/19 10:27:19;;;;;;;7.67;4.92;;;;;;;13.66;67.03;100292.73;1696163;84;21075;-69
2021/05/19 10:29:53;;;;;;;8.35;4.95;;;;;;;14.02;67.15;100289.95;1696406;84;21106;-69
2021/05/19 10:32:29;;;;;;;10.72;6.15;;;;;;;14.38;67.14;100290.66;1696104;83;21068;-69
2021/05/19 10:35:03;;;;;;;10.70;5.47;;;;;;;14.66;67.07;100291.95;1696219;84;21023;-69
2021/05/19 10:37:35;;;;;;;7.15;4.12;;;;;;;14.90;66.96;100293.28;1696499;84;21063;-69
2021/05/19 10:40:18;;;;;;;4.78;3.55;;;;;;;15.02;66.88;100291.70;1695224;84;21063;-69
2021/05/19 10:42:56;;;;;;;8.08;3.42;;;;;;;15.26;66.77;100283.09;1696231;84;21102;-69
2021/05/19 10:45:22;;;;;;;3.85;3.05;;;;;;;15.56;66.53;100277.36;1696482;84;21075;-69
2021/05/19 10:47:49;;;;;;;4.35;3.67;;;;;;;15.95;66.17;100276.04;1696334;84;21055;-69
2021/05/19 10:50:35;;;;;;;8.73;4.47;;;;;;;16.30;65.91;100277.96;1696608;84;21031;-69
2021/05/19 10:58:54;;;;;;;5.17;3.12;;;;;;;16.97;65.17;100283.80;1696432;84;21087;-69
2021/05/19 11:01:42;;;;;;;5.65;3.17;;;;;;;17.07;64.69;100279.80;1696473;84;21066;-69
2021/05/19 11:04:16;;;;;;;5.75;3.20;;;;;;;17.07;64.26;100282.49;1669341;85;21132;-69
2021/05/19 11:07:03;;;;;;;3.52;3.05;;;;;;;16.94;63.68;100274.80;1699256;83;21061;-69
2021/05/19 11:09:31;;;;;;;7.22;4.17;;;;;;;16.78;63.16;100283.88;1682394;84;21125;-69
2021/05/19 11:12:24;;;;;;;6.60;3.85;;;;;;;16.90;62.65;100274.91;1682509;85;21081;-69
2021/05/19 11:14:57;;;;;;;3.83;2.92;;;;;;;16.82;62.22;100279.70;1682568;84;21030;-69
2021/05/19 11:17:48;;;;;;;2.77;2.27;;;;;;;16.47;61.92;100278.65;1682070;84;21049;-69
2021/05/19 11:20:05;;;;;;;2.87;2.00;;;;;;;16.09;61.73;100281.72;1681001;84;21061;-69
2021/05/19 11:22:31;;;;;;;4.37;1.80;;;;;;;15.85;61.68;100281.02;1682447;84;21064;-69
2021/05/19 11:24:59;;;;;;;3.87;2.05;;;;;;;15.79;61.67;100285.88;1682339;85;21021;-69
2021/05/19 11:27:30;;;;;;;2.00;1.30;;;;;;;15.77;61.54;100291.96;1682495;85;21018;-69
2021/05/19 11:29:57;;;;;;;2.55;1.25;;;;;;;15.54;61.26;100290.19;1682416;84;21625;-69
2021/05/19 11:32:29;;;;;;;1.45;1.00;;;;;;;15.24;61.21;100293.19;1682442;85;21034;-69
2021/05/19 11:35:19;;;;;;;6.72;2.67;;;;;;;14.94;61.26;100297.23;1682386;84;21217;-69
2021/05/19 11:37:54;;;;;;;0.72;0.72;;;;;;;14.79;61.34;100294.69;1682451;85;21093;-69